createdAt,value
2018-06-25T00:00:16.955Z,2.23
2018-06-25T00:02:45.064Z,2.43
2018-06-25T00:05:12.955Z,2.50
2018-06-25T00:07:41.098Z,2.70
2018-06-25T00:10:09.199Z,3.43
2018-06-25T00:12:37.272Z,2.70
2018-06-25T00:15:05.652Z,3.10
2018-06-25T00:17:33.628Z,2.37
2018-06-25T00:20:01.729Z,3.53
2018-06-25T00:22:29.835Z,2.90
2018-06-25T00:24:57.959Z,2.80
2018-06-25T00:27:25.835Z,3.43
2018-06-25T00:29:53.735Z,2.83
2018-06-25T00:32:21.619Z,3.83
2018-06-25T00:34:49.495Z,3.37
2018-06-25T00:37:17.599Z,3.37
2018-06-25T00:39:45.671Z,2.60
2018-06-25T00:42:13.759Z,2.50
2018-06-25T00:44:41.860Z,3.90
2018-06-25T00:47:09.991Z,3.60
2018-06-25T00:49:38.085Z,3.30
2018-06-25T00:52:06.187Z,3.33
2018-06-25T00:54:34.286Z,3.60
2018-06-25T00:57:02.183Z,4.10
2018-06-25T00:59:35.770Z,3.03
2018-06-25T01:02:03.896Z,3.47
2018-06-25T01:04:31.999Z,4.10
2018-06-25T01:06:59.990Z,5.07
2018-06-25T01:09:28.088Z,5.97
2018-06-25T01:11:56.156Z,5.67
2018-06-25T01:14:24.273Z,4.60
2018-06-25T01:16:52.392Z,5.03
2018-06-25T01:19:20.261Z,5.40
2018-06-25T01:21:48.367Z,6.23
2018-06-25T01:24:16.350Z,6.80
2018-06-25T01:26:44.439Z,6.90
2018-06-25T01:29:12.547Z,4.90
2018-06-25T01:31:40.644Z,5.27
2018-06-25T01:34:08.724Z,5.67
2018-06-25T01:36:36.839Z,5.60
2018-06-25T01:39:07.331Z,5.83
2018-06-25T01:41:35.433Z,5.50
2018-06-25T01:44:03.548Z,6.43
2018-06-25T01:46:31.651Z,4.17
2018-06-25T01:48:59.748Z,6.83
2018-06-25T01:51:27.856Z,6.43
2018-06-25T01:53:55.948Z,4.50
2018-06-25T01:56:24.196Z,5.10
2018-06-25T01:58:52.316Z,4.20
2018-06-25T02:01:20.415Z,4.60
2018-06-25T02:03:48.507Z,5.03
2018-06-25T02:06:16.608Z,6.60
2018-06-25T02:08:44.711Z,11.00
2018-06-25T02:11:12.843Z,7.30
2018-06-25T02:13:40.936Z,8.43
2018-06-25T02:16:09.023Z,7.93
2018-06-25T02:18:37.137Z,6.80
2018-06-25T02:21:05.347Z,6.77
2018-06-25T02:23:33.454Z,8.20
2018-06-25T02:26:01.431Z,8.70
2018-06-25T02:28:29.536Z,8.30
2018-06-25T02:30:57.632Z,7.17
2018-06-25T02:33:25.739Z,10.00
2018-06-25T02:35:53.837Z,7.80
2018-06-25T02:38:21.944Z,11.80
2018-06-25T02:40:50.080Z,12.80
2018-06-25T02:43:18.164Z,11.67
2018-06-25T02:45:46.263Z,9.47
2018-06-25T02:48:14.364Z,9.10
2018-06-25T02:50:42.466Z,11.10
2018-06-25T02:53:10.693Z,9.70
2018-06-25T02:55:38.820Z,11.13
2018-06-25T02:58:06.911Z,9.37
2018-06-25T03:00:35.353Z,10.07
2018-06-25T03:03:03.446Z,8.40
2018-06-25T03:05:31.331Z,9.60
2018-06-25T03:07:59.277Z,7.50
2018-06-25T03:10:27.376Z,7.67
2018-06-25T03:12:55.459Z,8.83
2018-06-25T03:15:23.556Z,7.37
2018-06-25T03:17:51.656Z,7.67
2018-06-25T03:20:19.739Z,8.73
2018-06-25T03:22:47.854Z,9.07
2018-06-25T03:25:15.987Z,8.60
2018-06-25T03:27:43.958Z,8.03
2018-06-25T03:30:12.075Z,9.43
2018-06-25T03:32:40.175Z,10.67
2018-06-25T03:35:08.264Z,7.33
2018-06-25T03:37:36.369Z,7.47
2018-06-25T03:40:04.461Z,7.47
2018-06-25T03:42:32.538Z,6.73
2018-06-25T03:45:00.667Z,6.40
2018-06-25T03:47:28.633Z,5.20
2018-06-25T03:49:56.750Z,5.00
2018-06-25T03:52:25.059Z,5.43
2018-06-25T03:54:53.177Z,5.40
2018-06-25T03:57:21.046Z,4.13
2018-06-25T03:59:49.172Z,5.07
2018-06-25T04:02:17.287Z,4.53
2018-06-25T04:04:45.500Z,3.70
2018-06-25T04:07:13.584Z,4.00
2018-06-25T04:09:41.799Z,4.40
2018-06-25T04:12:09.913Z,4.30
2018-06-25T04:14:37.987Z,4.10
2018-06-25T04:17:06.102Z,3.97
2018-06-25T04:19:34.203Z,3.90
2018-06-25T04:22:02.303Z,3.40
2018-06-25T04:24:30.436Z,3.30
2018-06-25T04:26:58.323Z,3.20
2018-06-25T04:29:26.210Z,4.50
2018-06-25T04:31:54.122Z,3.77
2018-06-25T04:34:22.199Z,2.93
2018-06-25T04:36:50.311Z,3.50
2018-06-25T04:39:18.166Z,4.80
2018-06-25T04:41:46.272Z,3.27
2018-06-25T04:44:14.380Z,2.90
2018-06-25T04:46:42.484Z,3.77
2018-06-25T04:49:10.441Z,3.17
2018-06-25T04:51:38.623Z,3.60
2018-06-25T04:54:06.720Z,4.07
2018-06-25T04:56:34.859Z,4.30
2018-06-25T04:59:03.091Z,3.53
2018-06-25T05:01:31.187Z,2.90
2018-06-25T05:03:59.295Z,3.83
2018-06-25T05:06:27.392Z,3.53
2018-06-25T05:08:55.524Z,4.03
2018-06-25T05:11:23.632Z,3.20
2018-06-25T05:13:51.742Z,4.00
2018-06-25T05:16:19.862Z,4.03
2018-06-25T05:18:47.746Z,3.83
2018-06-25T05:21:15.646Z,3.63
2018-06-25T05:23:43.744Z,3.70
2018-06-25T05:26:11.831Z,3.83
2018-06-25T05:28:39.685Z,4.33
2018-06-25T05:31:07.791Z,4.00
2018-06-25T05:33:35.905Z,4.20
2018-06-25T05:36:03.985Z,3.70
2018-06-25T05:38:32.084Z,3.70
2018-06-25T05:41:00.173Z,4.20
2018-06-25T05:43:28.300Z,3.47
2018-06-25T05:45:56.415Z,3.83
2018-06-25T05:48:24.540Z,5.13
2018-06-25T05:50:52.654Z,3.93
2018-06-25T05:53:20.763Z,3.10
2018-06-25T05:55:48.901Z,3.90
2018-06-25T05:58:16.791Z,4.00
2018-06-25T06:00:44.894Z,3.17
2018-06-25T06:03:12.781Z,3.67
2018-06-25T06:05:40.869Z,3.23
2018-06-25T06:08:08.981Z,3.30
2018-06-25T06:10:37.067Z,3.60
2018-06-25T06:13:05.170Z,4.40
2018-06-25T06:15:33.298Z,3.97
2018-06-25T06:18:01.416Z,3.37
2018-06-25T06:20:29.544Z,4.10
2018-06-25T06:22:57.640Z,3.70
2018-06-25T06:25:25.746Z,4.07
2018-06-25T06:27:53.884Z,3.83
2018-06-25T06:30:21.987Z,4.80
2018-06-25T06:32:50.083Z,5.00
2018-06-25T06:35:18.199Z,4.77
2018-06-25T06:37:46.297Z,6.00
2018-06-25T06:40:14.407Z,4.83
2018-06-25T06:42:42.515Z,5.40
2018-06-25T06:45:10.635Z,5.67
2018-06-25T06:47:38.749Z,4.70
2018-06-25T06:50:06.849Z,4.50
2018-06-25T06:52:34.953Z,4.37
2018-06-25T06:55:03.055Z,4.23
2018-06-25T06:57:31.178Z,4.00
2018-06-25T06:59:59.258Z,3.90
2018-06-25T07:02:27.356Z,4.13
2018-06-25T07:04:55.453Z,4.17
2018-06-25T07:07:23.576Z,4.80
2018-06-25T07:09:51.668Z,3.67
2018-06-25T07:12:19.764Z,4.97
2018-06-25T07:14:47.848Z,4.27
2018-06-25T07:17:15.963Z,3.83
2018-06-25T07:19:44.095Z,3.83
2018-06-25T07:22:12.008Z,5.00
2018-06-25T07:24:39.900Z,3.63
2018-06-25T07:27:07.787Z,4.40
2018-06-25T07:29:35.691Z,3.50
2018-06-25T07:32:03.811Z,5.10
2018-06-25T07:34:31.911Z,4.70
2018-06-25T07:36:59.987Z,4.20
2018-06-25T07:39:28.096Z,4.37
2018-06-25T07:41:56.192Z,3.40
2018-06-25T07:44:24.296Z,3.37
2018-06-25T07:46:52.402Z,3.10
2018-06-25T07:49:20.524Z,3.70
2018-06-25T07:51:48.624Z,3.97
2018-06-25T07:54:16.717Z,3.90
2018-06-25T07:56:44.843Z,4.70
2018-06-25T07:59:12.969Z,4.00
2018-06-25T08:01:41.057Z,3.80
2018-06-25T08:04:09.140Z,3.57
2018-06-25T08:06:37.019Z,4.33
2018-06-25T08:09:08.207Z,3.37
2018-06-25T08:11:36.305Z,4.00
2018-06-25T08:14:04.481Z,3.13
2018-06-25T08:16:32.629Z,3.70
2018-06-25T08:19:00.694Z,2.57
2018-06-25T08:21:28.816Z,3.90
2018-06-25T08:23:56.906Z,3.97
2018-06-25T08:26:24.994Z,4.40
2018-06-25T08:28:53.123Z,4.57
2018-06-25T08:31:21.219Z,4.07
2018-06-25T08:33:49.383Z,3.93
2018-06-25T08:36:17.565Z,5.03
2018-06-25T08:38:45.431Z,4.20
2018-06-25T08:41:13.541Z,5.07
2018-06-25T08:43:41.825Z,4.33
2018-06-25T08:46:09.961Z,5.00
2018-06-25T08:48:37.850Z,4.27
2018-06-25T08:51:05.795Z,4.77
2018-06-25T08:53:33.887Z,4.20
2018-06-25T08:56:02.010Z,4.83
2018-06-25T08:58:30.123Z,5.27
2018-06-25T09:00:58.253Z,4.43
2018-06-25T09:03:26.362Z,5.33
2018-06-25T09:05:54.499Z,5.50
2018-06-25T09:08:22.792Z,4.63
2018-06-25T09:10:50.997Z,4.80
2018-06-25T09:13:19.111Z,4.93
2018-06-25T09:15:47.242Z,4.50
2018-06-25T09:18:15.331Z,4.27
2018-06-25T09:20:43.453Z,4.63
2018-06-25T09:23:11.556Z,4.83
2018-06-25T09:25:39.693Z,5.67
2018-06-25T09:28:07.769Z,5.83
2018-06-25T09:30:35.865Z,5.30
2018-06-25T09:33:03.943Z,5.67
2018-06-25T09:35:32.040Z,4.70
2018-06-25T09:38:00.153Z,4.20
2018-06-25T09:40:28.243Z,6.93
2018-06-25T09:42:56.412Z,5.53
2018-06-25T09:45:24.555Z,4.07
2018-06-25T09:47:52.639Z,6.70
2018-06-25T09:50:20.773Z,5.70
2018-06-25T09:52:48.885Z,5.97
2018-06-25T09:55:16.981Z,6.00
2018-06-25T09:57:45.086Z,6.07
2018-06-25T10:00:17.432Z,6.40
2018-06-25T10:02:45.625Z,6.57
2018-06-25T10:05:13.746Z,5.93
2018-06-25T10:07:41.887Z,7.77
2018-06-25T10:10:09.987Z,5.23
2018-06-25T10:12:37.919Z,4.77
2018-06-25T10:15:06.080Z,4.83
2018-06-25T10:17:34.235Z,4.50
2018-06-25T10:20:02.367Z,4.33
2018-06-25T10:22:30.484Z,6.73
2018-06-25T10:24:58.574Z,6.67
2018-06-25T10:27:26.684Z,5.13
2018-06-25T10:29:54.795Z,5.70
2018-06-25T10:32:22.902Z,5.10
2018-06-25T10:34:51.069Z,4.33
2018-06-25T10:37:19.168Z,6.23
2018-06-25T10:39:47.257Z,5.97
2018-06-25T10:42:15.471Z,5.90
2018-06-25T10:44:43.295Z,6.03
2018-06-25T10:47:11.391Z,6.37
2018-06-25T10:49:39.478Z,6.00
2018-06-25T10:52:07.845Z,5.20
2018-06-25T10:54:35.984Z,5.10
2018-06-25T10:57:04.656Z,5.40
2018-06-25T10:59:32.958Z,6.20
2018-06-25T11:02:00.916Z,6.53
2018-06-25T11:04:28.999Z,6.80
2018-06-25T11:06:57.130Z,5.43
2018-06-25T11:09:25.584Z,6.90
2018-06-25T11:11:53.701Z,6.60
2018-06-25T11:14:21.823Z,7.33
2018-06-25T11:16:49.936Z,4.10
2018-06-25T11:19:17.814Z,5.50
2018-06-25T11:21:45.702Z,7.43
2018-06-25T11:24:13.664Z,5.70
2018-06-25T11:26:41.859Z,6.03
2018-06-25T11:29:09.930Z,6.33
2018-06-25T11:31:38.068Z,6.13
2018-06-25T11:34:06.159Z,5.97
2018-06-25T11:36:34.308Z,5.40
2018-06-25T11:39:02.426Z,6.17
2018-06-25T11:41:30.524Z,6.40
2018-06-25T11:43:58.692Z,6.40
2018-06-25T11:46:26.791Z,7.47
2018-06-25T11:48:54.888Z,6.47
2018-06-25T11:51:22.781Z,6.30
2018-06-25T11:53:50.663Z,5.90
2018-06-25T11:56:18.763Z,5.20
2018-06-25T11:58:46.686Z,7.47
2018-06-25T12:01:14.824Z,7.10
2018-06-25T12:03:43.051Z,6.23
2018-06-25T12:06:10.936Z,6.27
2018-06-25T12:08:38.900Z,7.53
2018-06-25T12:11:07.008Z,6.70
2018-06-25T12:13:35.170Z,7.30
2018-06-25T12:16:03.267Z,8.03
2018-06-25T12:18:31.500Z,6.90
2018-06-25T12:20:59.648Z,8.93
2018-06-25T12:23:27.731Z,6.70
2018-06-25T12:25:55.860Z,6.80
2018-06-25T12:28:23.980Z,6.70
2018-06-25T12:30:52.081Z,7.13
2018-06-25T12:33:20.185Z,8.57
2018-06-25T12:35:48.306Z,6.20
2018-06-25T12:38:16.423Z,7.00
2018-06-25T12:40:44.555Z,7.63
2018-06-25T12:43:12.733Z,7.27
2018-06-25T12:45:40.771Z,7.27
2018-06-25T12:48:09.092Z,8.10
2018-06-25T12:50:37.219Z,8.50
2018-06-25T12:53:05.110Z,7.33
2018-06-25T12:55:33.224Z,6.90
2018-06-25T12:58:01.352Z,5.73
2018-06-25T13:00:29.444Z,7.47
2018-06-25T13:02:57.567Z,7.63
2018-06-25T13:05:25.668Z,7.20
2018-06-25T13:07:53.748Z,5.27
2018-06-25T13:10:21.860Z,6.93
2018-06-25T13:12:49.967Z,6.83
2018-06-25T13:15:17.867Z,6.70
2018-06-25T13:17:45.761Z,5.90
2018-06-25T13:20:13.899Z,5.20
2018-06-25T13:22:41.992Z,5.80
2018-06-25T13:25:10.089Z,7.27
2018-06-25T13:27:38.231Z,6.13
2018-06-25T13:30:06.336Z,6.77
2018-06-25T13:32:34.472Z,6.87
2018-06-25T13:35:02.612Z,5.20
2018-06-25T13:37:30.720Z,4.90
2018-06-25T13:39:58.810Z,4.83
2018-06-25T13:42:26.975Z,5.70
2018-06-25T13:44:55.092Z,7.00
2018-06-25T13:47:23.216Z,6.10
2018-06-25T13:49:51.316Z,6.63
2018-06-25T13:52:19.455Z,6.77
2018-06-25T13:54:47.601Z,5.80
2018-06-25T13:57:15.671Z,5.90
2018-06-25T13:59:43.956Z,6.17
2018-06-25T14:02:12.111Z,6.57
2018-06-25T14:04:40.211Z,5.53
2018-06-25T14:07:08.083Z,5.97
2018-06-25T14:09:36.212Z,6.13
2018-06-25T14:12:04.321Z,5.70
2018-06-25T14:14:32.413Z,6.80
2018-06-25T14:17:00.501Z,6.80
2018-06-25T14:19:28.605Z,5.70
2018-06-25T14:21:56.711Z,7.43
2018-06-25T14:24:30.377Z,6.60
2018-06-25T14:27:03.944Z,6.50
2018-06-25T14:29:32.764Z,6.27
2018-06-25T14:32:06.146Z,7.00
2018-06-25T14:34:34.265Z,5.90
2018-06-25T14:37:02.376Z,5.10
2018-06-25T14:39:30.504Z,5.03
2018-06-25T14:41:58.602Z,5.70
2018-06-25T14:44:26.699Z,5.23
2018-06-25T14:46:54.809Z,5.97
2018-06-25T14:49:22.928Z,6.50
2018-06-25T14:51:51.014Z,6.63
2018-06-25T14:54:19.140Z,5.47
2018-06-25T14:56:47.265Z,5.33
2018-06-25T14:59:15.462Z,5.87
2018-06-25T15:01:43.519Z,6.57
2018-06-25T15:04:11.617Z,6.27
2018-06-25T15:06:39.711Z,5.73
2018-06-25T15:09:09.467Z,5.93
2018-06-25T15:11:44.386Z,6.60
2018-06-25T15:14:12.465Z,4.50
2018-06-25T15:16:40.589Z,4.73
2018-06-25T15:19:08.746Z,6.07
2018-06-25T15:21:36.846Z,5.57
2018-06-25T15:24:05.001Z,4.43
2018-06-25T15:26:33.119Z,5.97
2018-06-25T15:29:01.224Z,6.37
2018-06-25T15:31:29.344Z,5.53
2018-06-25T15:33:57.468Z,4.90
2018-06-25T15:36:25.627Z,6.60
2018-06-25T15:38:53.752Z,4.90
2018-06-25T15:41:21.868Z,5.17
2018-06-25T15:43:49.996Z,5.00
2018-06-25T15:46:18.095Z,5.90
2018-06-25T15:48:46.192Z,5.20
2018-06-25T15:51:14.293Z,5.80
2018-06-25T15:53:42.433Z,5.77
2018-06-25T15:56:10.521Z,5.57
2018-06-25T15:58:38.637Z,5.40
2018-06-25T16:01:06.860Z,5.20
2018-06-25T16:03:34.971Z,5.33
2018-06-25T16:06:03.080Z,5.50
2018-06-25T16:08:31.183Z,5.27
2018-06-25T16:10:59.276Z,5.00
2018-06-25T16:13:27.392Z,5.17
2018-06-25T16:15:55.498Z,6.10
2018-06-25T16:18:23.581Z,4.40
2018-06-25T16:20:51.476Z,6.33
2018-06-25T16:23:19.586Z,4.80
2018-06-25T16:25:47.736Z,6.07
2018-06-25T16:28:15.822Z,4.90
2018-06-25T16:30:44.007Z,5.90
2018-06-25T16:33:12.093Z,5.03
2018-06-25T16:35:40.171Z,4.77
2018-06-25T16:38:08.063Z,6.10
2018-06-25T16:40:36.224Z,4.57
2018-06-25T16:43:04.400Z,5.67
2018-06-25T16:45:32.544Z,6.30
2018-06-25T16:48:00.514Z,6.10
2018-06-25T16:50:28.619Z,5.10
2018-06-25T16:52:56.723Z,4.80
2018-06-25T16:55:24.810Z,5.20
2018-06-25T16:57:52.971Z,5.73
2018-06-25T17:00:21.076Z,5.03
2018-06-25T17:02:49.188Z,5.60
2018-06-25T17:05:17.285Z,6.20
2018-06-25T17:07:45.432Z,6.00
2018-06-25T17:10:13.328Z,4.87
2018-06-25T17:12:41.422Z,4.87
2018-06-25T17:15:09.554Z,5.30
2018-06-25T17:17:37.655Z,5.00
2018-06-25T17:20:05.879Z,4.80
2018-06-25T17:22:33.987Z,4.27
2018-06-25T17:25:02.109Z,4.30
2018-06-25T17:27:30.218Z,5.50
2018-06-25T17:29:58.310Z,4.97
2018-06-25T17:32:26.421Z,4.97
2018-06-25T17:34:54.612Z,4.10
2018-06-25T17:37:23.135Z,4.30
2018-06-25T17:39:51.247Z,5.00
2018-06-25T17:42:19.431Z,4.30
2018-06-25T17:44:47.540Z,4.77
2018-06-25T17:47:15.649Z,3.60
2018-06-25T17:49:43.757Z,3.37
2018-06-25T17:52:11.852Z,3.77
2018-06-25T17:54:40.095Z,3.80
2018-06-25T17:57:08.076Z,3.40
2018-06-25T17:59:36.034Z,3.37
2018-06-25T18:02:04.360Z,3.43
2018-06-25T18:04:32.525Z,3.07
2018-06-25T18:07:00.612Z,3.07
2018-06-25T18:09:28.746Z,4.13
2018-06-25T18:11:56.842Z,4.20
2018-06-25T18:14:25.003Z,3.70
2018-06-25T18:16:53.079Z,3.27
2018-06-25T18:19:21.171Z,3.70
2018-06-25T18:21:49.286Z,3.40
2018-06-25T18:24:17.395Z,3.43
2018-06-25T18:26:45.477Z,4.20
2018-06-25T18:29:13.606Z,3.60
2018-06-25T18:31:41.688Z,3.90
2018-06-25T18:34:09.797Z,2.87
2018-06-25T18:36:37.900Z,3.07
2018-06-25T18:39:07.050Z,3.07
2018-06-25T18:41:35.148Z,3.63
2018-06-25T18:44:03.303Z,2.80
2018-06-25T18:46:31.428Z,4.17
2018-06-25T18:48:59.520Z,3.37
2018-06-25T18:51:27.640Z,3.33
2018-06-25T18:53:55.739Z,3.70
2018-06-25T18:56:24.378Z,3.43
2018-06-25T18:58:52.296Z,3.10
2018-06-25T19:01:20.392Z,2.90
2018-06-25T19:03:48.629Z,3.50
2018-06-25T19:06:16.757Z,2.80
2018-06-25T19:08:44.659Z,3.70
2018-06-25T19:11:12.787Z,2.93
2018-06-25T19:13:43.986Z,3.00
2018-06-25T19:16:12.216Z,2.53
2018-06-25T19:18:40.326Z,3.47
2018-06-25T19:21:08.456Z,3.57
2018-06-25T19:23:36.608Z,3.53
2018-06-25T19:26:04.937Z,3.30
2018-06-25T19:28:33.019Z,3.30
2018-06-25T19:31:01.396Z,3.40
2018-06-25T19:33:29.661Z,3.20
2018-06-25T19:35:57.749Z,2.70
2018-06-25T19:38:25.862Z,2.80
2018-06-25T19:40:54.050Z,3.80
2018-06-25T19:43:22.156Z,4.53
2018-06-25T19:45:50.293Z,3.00
2018-06-25T19:48:25.337Z,4.17
2018-06-25T19:50:53.449Z,4.20
2018-06-25T19:53:21.582Z,3.43
2018-06-25T19:55:49.716Z,3.47
2018-06-25T19:58:17.791Z,3.60
2018-06-25T20:00:45.919Z,4.50
2018-06-25T20:03:14.024Z,3.60
2018-06-25T20:05:42.183Z,4.57
2018-06-25T20:08:10.291Z,4.60
2018-06-25T20:10:38.336Z,3.73
2018-06-25T20:13:06.563Z,4.67
2018-06-25T20:15:34.902Z,4.97
2018-06-25T20:18:03.017Z,3.60
2018-06-25T20:20:37.701Z,6.03
2018-06-25T20:23:05.812Z,5.30
2018-06-25T20:25:33.713Z,4.70
2018-06-25T20:28:01.815Z,4.97
2018-06-25T20:30:29.919Z,5.80
2018-06-25T20:32:58.027Z,5.80
2018-06-25T20:35:26.153Z,6.37
2018-06-25T20:37:54.313Z,5.57
2018-06-25T20:40:22.432Z,6.40
2018-06-25T20:42:50.527Z,5.93
2018-06-25T20:45:19.763Z,6.50
2018-06-25T20:47:47.866Z,6.77
2018-06-25T20:50:15.976Z,6.07
2018-06-25T20:52:44.087Z,6.20
2018-06-25T20:55:12.176Z,6.10
2018-06-25T20:57:40.286Z,6.33
2018-06-25T21:00:08.379Z,6.10
2018-06-25T21:02:36.507Z,5.70
2018-06-25T21:05:04.923Z,5.03
2018-06-25T21:07:33.074Z,5.67
2018-06-25T21:10:01.262Z,5.87
2018-06-25T21:12:29.434Z,5.70
2018-06-25T21:14:57.543Z,4.67
2018-06-25T21:17:25.684Z,5.10
2018-06-25T21:19:53.804Z,5.10
2018-06-25T21:22:21.917Z,4.60
2018-06-25T21:24:50.022Z,4.27
2018-06-25T21:27:18.123Z,5.07
2018-06-25T21:29:46.319Z,3.63
2018-06-25T21:32:14.494Z,3.93
2018-06-25T21:34:42.584Z,5.80
2018-06-25T21:37:10.482Z,5.33
2018-06-25T21:39:39.307Z,4.73
2018-06-25T21:42:07.522Z,4.30
2018-06-25T21:44:35.608Z,5.00
2018-06-25T21:47:03.696Z,4.00
2018-06-25T21:49:31.799Z,3.93
2018-06-25T21:51:59.920Z,5.17
2018-06-25T21:54:28.848Z,5.10
2018-06-25T21:56:56.945Z,5.03
2018-06-25T21:59:25.056Z,4.50
2018-06-25T22:01:55.211Z,4.70
2018-06-25T22:04:23.299Z,4.63
2018-06-25T22:06:51.445Z,4.53
2018-06-25T22:09:19.708Z,5.33
2018-06-25T22:11:48.415Z,4.20
2018-06-25T22:14:16.533Z,5.37
2018-06-25T22:16:44.649Z,6.20
2018-06-25T22:19:12.516Z,4.53
2018-06-25T22:21:40.800Z,4.87
2018-06-25T22:24:08.895Z,4.50
2018-06-25T22:26:37.042Z,3.80
2018-06-25T22:29:05.211Z,4.60
2018-06-25T22:31:33.341Z,4.70
2018-06-25T22:34:01.424Z,4.93
2018-06-25T22:36:29.323Z,4.30
2018-06-25T22:38:57.421Z,4.00
2018-06-25T22:41:25.355Z,5.10
2018-06-25T22:43:58.376Z,4.30
2018-06-25T22:46:26.484Z,5.07
2018-06-25T22:48:54.742Z,3.87
2018-06-25T22:51:22.860Z,3.60
2018-06-25T22:53:50.953Z,4.03
2018-06-25T22:56:19.067Z,2.70
2018-06-25T22:58:47.302Z,4.43
2018-06-25T23:01:17.124Z,3.50
2018-06-25T23:03:45.257Z,3.50
2018-06-25T23:06:13.206Z,3.90
2018-06-25T23:08:42.216Z,3.50
2018-06-25T23:11:10.391Z,3.00
2018-06-25T23:13:38.432Z,2.93
2018-06-25T23:16:06.539Z,3.80
2018-06-25T23:18:34.740Z,4.07
2018-06-25T23:21:02.609Z,3.57
2018-06-25T23:23:30.692Z,4.50
2018-06-25T23:25:58.843Z,3.63
2018-06-25T23:28:26.802Z,3.43
2018-06-25T23:30:54.928Z,4.57
2018-06-25T23:33:22.795Z,5.07
2018-06-25T23:35:50.903Z,4.40
2018-06-25T23:38:19.057Z,4.30
2018-06-25T23:40:47.136Z,3.37
2018-06-25T23:43:15.219Z,2.47
2018-06-25T23:45:43.110Z,5.20
2018-06-25T23:48:11.200Z,3.50
2018-06-25T23:50:39.245Z,4.70
2018-06-25T23:53:07.146Z,3.60
2018-06-25T23:55:35.235Z,3.70
2018-06-25T23:58:03.349Z,4.90
